Hessmer, Louisiana
Current Conditions -  °F | °C
As of 6:53 AM on Thursday 27 Nov 2014 (Local Time) from KESF Reporting Station
Clear Clear  
Wind Chill: 41°   Ceiling: Unl
Heat Index: 44°   Visibility: 10mi
Dew Point: 31°   Wind: 6mph
Humidity: 60%   Direction: 360°N
Pressure: 30.45"   Gusts: NA
Location:  31.06°N, 92.12°W
Report Text: KESF 271253Z AUTO 36005KT 10SM CLR 07/M01 A3045 RMK AO2 SLP310 T00671006
Loading
Personal Weather Stations






























Interactive Weather Map New forecast layout! Learn more

10-Day Weather Forecast

Advertisements
Track Severe Weather on mobile